createdAt,value
2017-09-20T00:01:55.950Z,99.90
2017-09-20T00:04:24.204Z,99.90
2017-09-20T00:06:51.671Z,99.90
2017-09-20T00:09:19.138Z,99.90
2017-09-20T00:11:47.387Z,99.90
2017-09-20T00:14:14.859Z,99.90
2017-09-20T00:16:42.322Z,99.90
2017-09-20T00:19:10.579Z,99.90
2017-09-20T00:21:38.820Z,99.90
2017-09-20T00:24:06.292Z,99.90
2017-09-20T00:26:33.767Z,99.90
2017-09-20T00:29:01.238Z,99.90
2017-09-20T00:31:29.475Z,99.90
2017-09-20T00:33:56.963Z,99.90
2017-09-20T00:36:24.428Z,99.90
2017-09-20T00:38:52.687Z,99.90
2017-09-20T00:41:20.142Z,99.90
2017-09-20T00:43:48.376Z,99.90
2017-09-20T00:46:15.858Z,99.90
2017-09-20T00:48:43.343Z,99.90
2017-09-20T00:51:10.810Z,99.90
2017-09-20T00:53:39.054Z,99.90
2017-09-20T00:56:06.555Z,99.90
2017-09-20T00:58:34.040Z,99.90
2017-09-20T01:01:01.519Z,99.90
2017-09-20T01:03:28.987Z,99.90
2017-09-20T01:05:56.471Z,99.90
2017-09-20T01:08:24.731Z,99.90
2017-09-20T01:10:52.215Z,99.90
2017-09-20T01:13:19.687Z,99.90
2017-09-20T01:15:47.155Z,99.90
2017-09-20T01:18:14.634Z,99.90
2017-09-20T01:20:53.967Z,99.90
2017-09-20T01:23:33.171Z,99.90
2017-09-20T01:26:01.067Z,99.90
2017-09-20T01:28:28.537Z,99.90
2017-09-20T01:30:56.778Z,99.90
2017-09-20T01:33:24.258Z,99.90
2017-09-20T01:35:51.727Z,99.90
2017-09-20T01:38:19.216Z,99.90
2017-09-20T01:40:47.466Z,99.90
2017-09-20T01:43:14.940Z,99.90
2017-09-20T01:45:43.200Z,99.90
2017-09-20T01:48:10.673Z,99.90
2017-09-20T01:50:38.934Z,99.90
2017-09-20T01:53:07.168Z,99.90
2017-09-20T01:55:34.665Z,99.90
2017-09-20T01:58:02.141Z,99.90
2017-09-20T02:00:29.653Z,99.90
2017-09-20T02:02:57.112Z,99.90
2017-09-20T02:05:24.595Z,99.90
2017-09-20T02:07:52.839Z,99.90
2017-09-20T02:10:20.308Z,99.90
2017-09-20T02:12:47.808Z,99.90
2017-09-20T02:15:16.032Z,99.90
2017-09-20T02:17:43.500Z,99.90
2017-09-20T02:20:10.995Z,99.90
2017-09-20T02:22:38.471Z,99.90
2017-09-20T02:25:05.960Z,99.90
2017-09-20T02:27:33.419Z,99.90
2017-09-20T02:30:00.916Z,99.90
2017-09-20T02:32:29.148Z,99.90
2017-09-20T02:34:58.148Z,99.90
2017-09-20T02:37:25.607Z,99.90
2017-09-20T02:39:53.095Z,99.90
2017-09-20T02:42:20.590Z,99.90
2017-09-20T02:44:48.055Z,99.90
2017-09-20T02:47:15.544Z,99.90
2017-09-20T02:49:43.776Z,99.90
2017-09-20T02:52:11.263Z,99.90
2017-09-20T02:54:40.236Z,99.90
2017-09-20T02:57:07.727Z,99.90
2017-09-20T02:59:35.976Z,99.90
2017-09-20T03:02:03.436Z,99.90
2017-09-20T03:04:30.915Z,99.90
2017-09-20T03:06:59.144Z,99.90
2017-09-20T03:09:26.632Z,99.90
2017-09-20T03:11:54.878Z,99.90
2017-09-20T03:14:22.382Z,99.90
2017-09-20T03:16:50.637Z,99.90
2017-09-20T03:19:19.645Z,99.90
2017-09-20T03:21:47.892Z,99.90
2017-09-20T03:24:15.369Z,99.90
2017-09-20T03:26:42.864Z,99.90
2017-09-20T03:29:10.341Z,99.90
2017-09-20T03:31:37.837Z,99.90
2017-09-20T03:34:05.321Z,99.90
2017-09-20T03:36:32.843Z,99.90
2017-09-20T03:39:00.331Z,99.90
2017-09-20T03:41:28.576Z,99.90
2017-09-20T03:43:56.109Z,99.90
2017-09-20T03:46:23.560Z,99.90
2017-09-20T03:48:51.037Z,99.90
2017-09-20T03:51:18.525Z,99.90
2017-09-20T03:53:46.768Z,99.90
2017-09-20T03:56:14.282Z,99.90
2017-09-20T03:58:41.748Z,99.90
2017-09-20T04:01:09.230Z,99.90
2017-09-20T04:03:36.740Z,99.90
2017-09-20T04:06:04.991Z,99.90
2017-09-20T04:08:32.467Z,99.90
2017-09-20T04:11:00.708Z,99.90
2017-09-20T04:13:28.191Z,99.90
2017-09-20T04:15:56.440Z,99.90
2017-09-20T04:18:23.919Z,99.90
2017-09-20T04:20:52.151Z,99.90
2017-09-20T04:23:19.645Z,99.90
2017-09-20T04:25:47.114Z,99.90
2017-09-20T04:28:15.347Z,99.90
2017-09-20T04:30:42.822Z,99.90
2017-09-20T04:33:11.796Z,99.90
2017-09-20T04:35:39.261Z,99.90
2017-09-20T04:38:06.743Z,99.90
2017-09-20T04:40:34.992Z,99.90
2017-09-20T04:43:02.472Z,99.90
2017-09-20T04:45:29.923Z,99.90
2017-09-20T04:47:57.408Z,99.90
2017-09-20T04:50:24.871Z,99.90
2017-09-20T04:52:52.355Z,99.90
2017-09-20T04:55:19.823Z,99.90
2017-09-20T04:57:47.295Z,99.90
2017-09-20T05:00:15.544Z,99.90
2017-09-20T05:02:43.004Z,99.90
2017-09-20T05:05:10.471Z,99.90
2017-09-20T05:07:37.979Z,99.90
2017-09-20T05:10:06.224Z,99.90
2017-09-20T05:12:33.708Z,99.90
2017-09-20T05:15:01.938Z,99.90
2017-09-20T05:17:29.430Z,99.90
2017-09-20T05:19:57.839Z,99.90
2017-09-20T05:22:25.338Z,99.90
2017-09-20T05:24:52.812Z,99.90
2017-09-20T05:27:21.058Z,99.90
2017-09-20T05:29:48.552Z,99.90
2017-09-20T05:32:16.789Z,99.90
2017-09-20T05:34:44.254Z,99.90
2017-09-20T05:37:11.747Z,99.90
2017-09-20T05:39:39.992Z,99.90
2017-09-20T05:42:07.467Z,99.90
2017-09-20T05:44:35.723Z,99.90
2017-09-20T05:47:04.711Z,99.90
2017-09-20T05:49:32.188Z,99.90
2017-09-20T05:52:00.448Z,99.90
2017-09-20T05:54:27.940Z,99.90
2017-09-20T05:56:56.179Z,99.90
2017-09-20T05:59:23.671Z,99.90
2017-09-20T06:01:51.139Z,99.90
2017-09-20T06:04:18.610Z,99.90
2017-09-20T06:06:46.112Z,99.90
2017-09-20T06:09:13.575Z,99.90
2017-09-20T06:11:41.064Z,99.90
2017-09-20T06:14:08.571Z,99.90
2017-09-20T06:16:37.559Z,99.90
2017-09-20T06:19:05.048Z,99.90
2017-09-20T06:21:33.287Z,99.90
2017-09-20T06:24:00.756Z,99.90
2017-09-20T06:26:29.012Z,99.90
2017-09-20T06:28:56.503Z,99.90
2017-09-20T06:31:24.739Z,99.90
2017-09-20T06:33:52.226Z,99.90
2017-09-20T06:36:19.715Z,99.90
2017-09-20T06:38:47.185Z,99.90
2017-09-20T06:41:14.662Z,99.90
2017-09-20T06:43:42.143Z,99.90
2017-09-20T06:46:09.611Z,99.90
2017-09-20T06:48:37.103Z,99.90
2017-09-20T06:51:04.599Z,99.90
2017-09-20T06:53:32.083Z,99.90
2017-09-20T06:55:59.572Z,99.90
2017-09-20T06:58:27.055Z,99.90
2017-09-20T07:00:54.529Z,99.90
2017-09-20T07:03:22.013Z,99.90
2017-09-20T07:05:49.498Z,99.90
2017-09-20T07:08:16.969Z,99.90
2017-09-20T07:10:44.457Z,99.90
2017-09-20T07:13:11.936Z,99.90
2017-09-20T07:15:39.416Z,99.90
2017-09-20T07:18:07.657Z,99.90
2017-09-20T07:20:35.124Z,99.90
2017-09-20T07:23:02.611Z,99.90
2017-09-20T07:25:30.070Z,99.90
2017-09-20T07:27:57.555Z,99.90
2017-09-20T07:30:25.015Z,99.90
2017-09-20T07:32:52.499Z,99.90
2017-09-20T07:35:19.982Z,99.90
2017-09-20T07:37:48.229Z,99.90
2017-09-20T07:40:15.728Z,99.90
2017-09-20T07:42:43.192Z,99.90
2017-09-20T07:45:10.693Z,99.90
2017-09-20T07:47:38.156Z,99.90
2017-09-20T07:50:05.644Z,99.90
2017-09-20T07:52:33.895Z,99.90
2017-09-20T07:55:01.365Z,99.90
2017-09-20T07:57:29.615Z,99.90
2017-09-20T07:59:57.107Z,99.90
2017-09-20T08:02:25.367Z,99.90
2017-09-20T08:04:52.831Z,99.90
2017-09-20T08:07:21.054Z,99.90
2017-09-20T08:09:48.538Z,99.90
2017-09-20T08:12:16.052Z,99.90
2017-09-20T08:14:43.540Z,99.90
2017-09-20T08:17:11.011Z,99.90
2017-09-20T08:19:38.504Z,99.90
2017-09-20T08:22:05.976Z,99.90
2017-09-20T08:24:33.454Z,99.90
2017-09-20T08:27:00.954Z,99.90
2017-09-20T08:29:28.423Z,99.90
2017-09-20T08:31:56.656Z,99.90
2017-09-20T08:34:24.136Z,99.90
2017-09-20T08:36:51.623Z,99.90
2017-09-20T08:39:19.102Z,99.90
2017-09-20T08:41:46.579Z,99.90
2017-09-20T08:44:14.060Z,99.90
2017-09-20T08:46:41.539Z,99.90
2017-09-20T08:49:09.792Z,99.90
2017-09-20T08:51:37.271Z,99.90
2017-09-20T08:54:05.512Z,99.90
2017-09-20T08:56:32.991Z,99.90
2017-09-20T08:59:01.235Z,99.90
2017-09-20T09:01:28.719Z,99.90
2017-09-20T09:03:56.199Z,99.90
2017-09-20T09:06:23.672Z,99.90
2017-09-20T09:08:51.135Z,99.90
2017-09-20T09:11:18.623Z,99.90
2017-09-20T09:13:46.107Z,99.90
2017-09-20T09:16:14.360Z,99.90
2017-09-20T09:18:41.830Z,99.90
2017-09-20T09:21:09.312Z,99.90
2017-09-20T09:23:36.779Z,99.90
2017-09-20T09:26:04.395Z,99.90
2017-09-20T09:28:31.880Z,99.90
2017-09-20T09:31:00.116Z,99.90
2017-09-20T09:33:27.595Z,99.90
2017-09-20T09:35:55.059Z,99.90
2017-09-20T09:38:23.308Z,99.90
2017-09-20T09:40:50.782Z,99.90
2017-09-20T09:43:19.023Z,99.90
2017-09-20T09:45:46.510Z,99.90
2017-09-20T09:48:14.008Z,99.90
2017-09-20T09:50:41.483Z,99.90
2017-09-20T09:53:08.956Z,99.90
2017-09-20T09:55:36.489Z,99.90
2017-09-20T09:58:03.967Z,99.90
2017-09-20T10:00:31.430Z,99.90
2017-09-20T10:02:58.910Z,99.90
2017-09-20T10:05:27.162Z,99.90
2017-09-20T10:07:54.626Z,99.90
2017-09-20T10:10:22.143Z,97.90
2017-09-20T10:12:49.613Z,94.80
2017-09-20T10:15:17.091Z,92.30
2017-09-20T10:17:44.560Z,90.60
2017-09-20T10:20:12.043Z,90.50
2017-09-20T10:22:40.278Z,85.40
2017-09-20T10:25:07.763Z,85.00
2017-09-20T10:27:35.233Z,85.20
2017-09-20T10:30:03.470Z,91.40
2017-09-20T10:32:30.938Z,91.40
2017-09-20T10:34:58.392Z,92.30
2017-09-20T10:37:25.862Z,94.40
2017-09-20T10:39:54.119Z,93.60
2017-09-20T10:42:21.587Z,93.60
2017-09-20T10:44:49.061Z,90.40
2017-09-20T10:47:17.293Z,80.30
2017-09-20T10:49:44.751Z,80.10
2017-09-20T10:52:12.236Z,77.80
2017-09-20T10:54:40.472Z,78.50
2017-09-20T10:57:07.944Z,78.40
2017-09-20T10:59:35.406Z,78.60
2017-09-20T11:02:02.886Z,82.10
2017-09-20T11:04:31.119Z,88.30
2017-09-20T11:06:58.586Z,88.40
2017-09-20T11:09:26.068Z,92.00
2017-09-20T11:11:53.567Z,95.30
2017-09-20T11:14:21.034Z,96.60
2017-09-20T11:16:48.519Z,97.50
2017-09-20T11:19:16.007Z,99.10
2017-09-20T11:21:44.231Z,99.90
2017-09-20T11:24:11.707Z,99.90
2017-09-20T11:26:39.191Z,97.70
2017-09-20T11:29:07.414Z,92.60
2017-09-20T11:31:34.891Z,92.60
2017-09-20T11:34:02.360Z,92.80
2017-09-20T11:36:30.605Z,95.60
2017-09-20T11:38:58.074Z,95.60
2017-09-20T11:41:25.538Z,96.10
2017-09-20T11:43:53.762Z,93.60
2017-09-20T11:46:21.235Z,93.50
2017-09-20T11:48:48.703Z,90.40
2017-09-20T11:51:16.252Z,82.90
2017-09-20T11:53:43.716Z,84.70
2017-09-20T11:56:11.256Z,82.40
2017-09-20T11:58:38.744Z,74.90
2017-09-20T12:01:06.203Z,77.70
2017-09-20T12:03:33.658Z,78.20
2017-09-20T12:06:01.151Z,81.90
2017-09-20T12:08:29.396Z,81.10
2017-09-20T12:10:56.863Z,81.10
2017-09-20T12:13:24.324Z,81.00
2017-09-20T12:15:52.576Z,81.40
2017-09-20T12:18:20.049Z,81.00
2017-09-20T12:20:47.531Z,85.70
2017-09-20T12:23:15.813Z,84.60
2017-09-20T12:25:44.059Z,82.20
2017-09-20T12:28:11.551Z,82.10
2017-09-20T12:30:39.034Z,82.20
2017-09-20T12:33:06.509Z,84.80
2017-09-20T12:35:33.995Z,88.80
2017-09-20T12:38:01.549Z,89.60
2017-09-20T12:40:29.801Z,82.50
2017-09-20T12:42:57.261Z,82.40
2017-09-20T12:45:24.771Z,88.00
2017-09-20T12:47:52.230Z,90.70
2017-09-20T12:50:19.716Z,92.20
2017-09-20T12:52:47.188Z,91.00
2017-09-20T12:55:14.651Z,91.30
2017-09-20T12:57:42.115Z,92.60
2017-09-20T13:00:09.599Z,94.20
2017-09-20T13:02:37.830Z,92.10
2017-09-20T13:05:05.288Z,92.10
2017-09-20T13:07:32.797Z,90.10
2017-09-20T13:10:00.307Z,88.00
2017-09-20T13:12:27.783Z,92.30
2017-09-20T13:14:55.251Z,90.90
2017-09-20T13:17:23.498Z,86.10
2017-09-20T13:19:50.973Z,85.90
2017-09-20T13:22:18.426Z,84.90
2017-09-20T13:24:46.689Z,90.00
2017-09-20T13:27:14.967Z,91.80
2017-09-20T13:29:42.432Z,91.70
2017-09-20T13:32:09.892Z,92.40
2017-09-20T13:34:38.139Z,95.90
2017-09-20T13:37:05.665Z,95.50
2017-09-20T13:39:33.119Z,95.40
2017-09-20T13:42:00.614Z,95.50
2017-09-20T13:44:28.081Z,95.90
2017-09-20T13:46:55.564Z,97.70
2017-09-20T13:49:23.824Z,97.00
2017-09-20T13:51:52.109Z,97.30
2017-09-20T13:54:20.417Z,97.40
2017-09-20T13:56:47.902Z,97.40
2017-09-20T13:59:15.362Z,99.00
2017-09-20T14:01:43.809Z,97.90
2017-09-20T14:04:11.332Z,97.80
2017-09-20T14:06:40.001Z,97.10
2017-09-20T14:09:07.614Z,98.30
2017-09-20T14:11:35.202Z,96.10
2017-09-20T14:14:02.792Z,95.00
2017-09-20T14:16:31.108Z,95.30
2017-09-20T14:18:58.665Z,95.30
2017-09-20T14:21:26.355Z,96.40
2017-09-20T14:23:53.855Z,97.30
2017-09-20T14:26:22.249Z,97.80
2017-09-20T14:28:50.617Z,98.50
2017-09-20T14:31:18.227Z,98.50
2017-09-20T14:33:45.727Z,98.00
2017-09-20T14:36:14.171Z,96.40
2017-09-20T14:38:41.626Z,96.40
2017-09-20T14:41:09.139Z,94.80
2017-09-20T14:43:36.599Z,93.70
2017-09-20T14:46:04.092Z,93.50
2017-09-20T14:48:31.642Z,93.30
2017-09-20T14:50:59.135Z,93.40
2017-09-20T14:53:26.637Z,93.90
2017-09-20T14:55:54.106Z,95.10
2017-09-20T14:58:21.600Z,94.20
2017-09-20T15:00:49.112Z,95.20
2017-09-20T15:03:16.861Z,94.70
2017-09-20T15:05:44.391Z,94.50
2017-09-20T15:08:12.709Z,93.40
2017-09-20T15:10:40.239Z,93.40
2017-09-20T15:13:07.742Z,93.30
2017-09-20T15:15:35.432Z,94.10
2017-09-20T15:18:02.956Z,94.80
2017-09-20T15:20:30.522Z,94.90
2017-09-20T15:22:58.011Z,94.20
2017-09-20T15:25:25.478Z,94.30
2017-09-20T15:27:53.818Z,95.20
2017-09-20T15:30:21.320Z,95.20
2017-09-20T15:32:49.798Z,96.00
2017-09-20T15:35:18.034Z,95.20
2017-09-20T15:37:45.500Z,95.20
2017-09-20T15:40:12.984Z,95.10
2017-09-20T15:42:41.221Z,95.80
2017-09-20T15:45:08.695Z,95.80
2017-09-20T15:47:36.171Z,95.70
2017-09-20T15:50:04.423Z,95.00
2017-09-20T15:52:31.906Z,95.00
2017-09-20T15:55:00.132Z,95.70
2017-09-20T15:57:27.606Z,95.70
2017-09-20T15:59:55.074Z,94.80
2017-09-20T16:02:22.553Z,94.40
2017-09-20T16:04:50.796Z,94.80
2017-09-20T16:07:18.262Z,94.70
2017-09-20T16:09:45.739Z,94.30
2017-09-20T16:12:13.964Z,95.00
2017-09-20T16:14:41.450Z,94.90
2017-09-20T16:17:08.916Z,95.20
2017-09-20T16:19:37.154Z,94.70
2017-09-20T16:22:04.648Z,94.70
2017-09-20T16:24:32.110Z,94.70
2017-09-20T16:27:00.355Z,95.80
2017-09-20T16:29:27.823Z,95.80
2017-09-20T16:31:55.329Z,95.50
2017-09-20T16:34:22.795Z,96.00
2017-09-20T16:36:50.263Z,95.80
2017-09-20T16:39:17.747Z,97.30
2017-09-20T16:41:45.987Z,97.10
2017-09-20T16:44:13.465Z,97.20
2017-09-20T16:46:40.927Z,98.00
2017-09-20T16:49:08.408Z,98.90
2017-09-20T16:51:36.671Z,99.60
2017-09-20T16:54:04.145Z,99.60
2017-09-20T16:56:32.376Z,99.90
2017-09-20T16:58:59.860Z,99.90
2017-09-20T17:01:27.488Z,99.90
2017-09-20T17:03:55.773Z,99.90
2017-09-20T17:06:23.304Z,99.90
2017-09-20T17:08:50.765Z,99.90
2017-09-20T17:11:18.256Z,99.90
2017-09-20T17:13:45.728Z,99.90
2017-09-20T17:16:13.226Z,99.90
2017-09-20T17:18:40.712Z,99.90
2017-09-20T17:21:08.191Z,99.90
2017-09-20T17:23:35.660Z,99.90
2017-09-20T17:26:03.908Z,99.90
2017-09-20T17:28:31.399Z,99.90
2017-09-20T17:30:59.659Z,99.90
2017-09-20T17:33:27.138Z,99.90
2017-09-20T17:35:55.368Z,99.90
2017-09-20T17:38:23.270Z,99.90
2017-09-20T17:40:51.519Z,99.90
2017-09-20T17:43:18.996Z,99.90
2017-09-20T17:45:46.470Z,99.90
2017-09-20T17:48:14.711Z,99.90
2017-09-20T17:50:42.204Z,99.90
2017-09-20T17:53:09.692Z,99.90
2017-09-20T17:55:37.164Z,99.90
2017-09-20T17:58:04.670Z,99.90
2017-09-20T18:00:32.914Z,99.90
2017-09-20T18:03:00.408Z,99.90
2017-09-20T18:05:28.642Z,99.90
2017-09-20T18:07:56.108Z,99.90
2017-09-20T18:10:23.579Z,99.90
2017-09-20T18:12:51.810Z,99.90
2017-09-20T18:15:19.300Z,99.90
2017-09-20T18:17:46.760Z,99.90
2017-09-20T18:20:15.007Z,99.90
2017-09-20T18:22:42.508Z,99.90
2017-09-20T18:25:10.755Z,99.90
2017-09-20T18:27:38.268Z,99.90
2017-09-20T18:30:05.738Z,99.90
2017-09-20T18:32:33.230Z,99.90
2017-09-20T18:35:00.737Z,99.90
2017-09-20T18:37:28.228Z,99.90
2017-09-20T18:39:55.708Z,99.90
2017-09-20T18:42:23.185Z,99.90
2017-09-20T18:44:50.673Z,99.90
2017-09-20T18:47:18.135Z,99.90
2017-09-20T18:49:45.604Z,99.90
2017-09-20T18:52:13.088Z,99.90
2017-09-20T18:54:40.553Z,99.90
2017-09-20T18:57:08.887Z,99.90
2017-09-20T18:59:36.364Z,99.90
2017-09-20T19:02:03.846Z,99.90
2017-09-20T19:04:32.180Z,99.90
2017-09-20T19:06:59.654Z,99.90
2017-09-20T19:09:27.138Z,99.90
2017-09-20T19:11:55.787Z,99.90
2017-09-20T19:14:24.902Z,99.90
2017-09-20T19:16:52.445Z,99.90
2017-09-20T19:19:20.044Z,99.90
2017-09-20T19:21:47.539Z,99.90
2017-09-20T19:24:15.368Z,99.90
2017-09-20T19:26:43.143Z,99.90
2017-09-20T19:29:10.636Z,99.90
2017-09-20T19:31:38.126Z,99.90
2017-09-20T19:34:06.354Z,99.90
2017-09-20T19:36:33.968Z,99.90
2017-09-20T19:39:02.364Z,99.90
2017-09-20T19:41:29.836Z,99.90
2017-09-20T19:43:57.418Z,99.90
2017-09-20T19:46:25.017Z,99.90
2017-09-20T19:48:53.784Z,99.90
2017-09-20T19:51:22.097Z,99.90
2017-09-20T19:53:49.595Z,99.90
2017-09-20T19:56:17.080Z,99.90
2017-09-20T19:58:44.555Z,99.90
2017-09-20T20:01:12.811Z,99.90
2017-09-20T20:03:40.279Z,99.90
2017-09-20T20:06:08.528Z,99.90
2017-09-20T20:08:36.025Z,99.90
2017-09-20T20:11:04.257Z,99.90
2017-09-20T20:13:31.740Z,99.90
2017-09-20T20:15:59.979Z,99.90
2017-09-20T20:18:27.453Z,99.90
2017-09-20T20:20:54.939Z,99.90
2017-09-20T20:23:23.176Z,99.90
2017-09-20T20:25:50.655Z,99.90
2017-09-20T20:28:18.149Z,99.90
2017-09-20T20:30:45.648Z,99.90
2017-09-20T20:33:13.136Z,99.90
2017-09-20T20:35:41.404Z,99.90
2017-09-20T20:38:08.941Z,99.90
2017-09-20T20:40:36.514Z,99.90
2017-09-20T20:43:03.992Z,99.90
2017-09-20T20:45:32.300Z,99.90
2017-09-20T20:47:59.984Z,99.90
2017-09-20T20:50:27.553Z,99.90
2017-09-20T20:52:55.160Z,99.90
2017-09-20T20:55:22.686Z,99.90
2017-09-20T20:57:50.300Z,99.90
2017-09-20T21:00:17.887Z,99.90
2017-09-20T21:02:45.515Z,99.90
2017-09-20T21:05:13.078Z,99.90
2017-09-20T21:07:40.714Z,99.90
2017-09-20T21:10:08.302Z,99.90
2017-09-20T21:12:35.903Z,99.90
2017-09-20T21:15:04.156Z,99.90
2017-09-20T21:17:31.637Z,99.90
2017-09-20T21:20:00.743Z,99.90
2017-09-20T21:22:28.233Z,99.90
2017-09-20T21:24:55.709Z,99.90
2017-09-20T21:27:23.180Z,99.90
2017-09-20T21:29:50.663Z,99.90
2017-09-20T21:32:18.132Z,99.90
2017-09-20T21:34:46.452Z,99.90
2017-09-20T21:37:13.940Z,99.90
2017-09-20T21:39:41.400Z,99.90
2017-09-20T21:42:08.904Z,99.90
2017-09-20T21:44:36.367Z,99.90
2017-09-20T21:47:03.831Z,99.90
2017-09-20T21:49:31.323Z,99.90
2017-09-20T21:51:58.813Z,99.90
2017-09-20T21:54:27.051Z,99.90
2017-09-20T21:56:54.531Z,99.90
2017-09-20T21:59:22.766Z,99.90
2017-09-20T22:01:50.254Z,99.90
2017-09-20T22:04:17.718Z,99.90
2017-09-20T22:06:45.961Z,99.90
2017-09-20T22:09:13.438Z,99.90
2017-09-20T22:11:40.907Z,99.90
2017-09-20T22:14:09.160Z,99.90
2017-09-20T22:16:49.235Z,99.90
2017-09-20T22:19:29.439Z,99.90
2017-09-20T22:22:08.848Z,99.90
2017-09-20T22:24:48.293Z,99.90
2017-09-20T22:27:27.874Z,99.90
2017-09-20T22:29:55.353Z,99.90
2017-09-20T22:32:22.835Z,99.90
2017-09-20T22:34:50.296Z,99.90
2017-09-20T22:37:17.788Z,99.90
2017-09-20T22:39:45.249Z,99.90
2017-09-20T22:42:12.723Z,99.90
2017-09-20T22:44:40.203Z,99.90
2017-09-20T22:47:08.439Z,99.90
2017-09-20T22:49:35.923Z,99.90
2017-09-20T22:52:03.388Z,99.90
2017-09-20T22:54:31.639Z,99.90
2017-09-20T22:56:59.124Z,99.90
2017-09-20T22:59:27.367Z,99.90
2017-09-20T23:01:54.831Z,99.90
2017-09-20T23:04:22.311Z,99.90
2017-09-20T23:06:50.552Z,99.90
2017-09-20T23:09:18.048Z,99.90
2017-09-20T23:11:46.279Z,99.90
2017-09-20T23:14:13.743Z,99.90
2017-09-20T23:16:41.251Z,99.90
2017-09-20T23:19:08.736Z,99.90
2017-09-20T23:21:36.208Z,99.90
2017-09-20T23:24:03.671Z,99.90
2017-09-20T23:26:31.155Z,99.90
2017-09-20T23:28:59.378Z,99.90
2017-09-20T23:31:26.885Z,99.90
2017-09-20T23:33:55.119Z,99.90
2017-09-20T23:36:22.598Z,99.90
2017-09-20T23:38:50.084Z,99.90
2017-09-20T23:41:18.316Z,99.90
2017-09-20T23:43:45.803Z,99.90
2017-09-20T23:46:14.038Z,99.90
2017-09-20T23:48:41.515Z,99.90
2017-09-20T23:51:09.763Z,99.90
2017-09-20T23:53:37.226Z,99.90
2017-09-20T23:56:04.712Z,99.90
2017-09-20T23:58:32.175Z,99.90
